Latest Weather Observations for Laverton

IDV60901

Issued at 12:51 pm EDT Tuesday 9 February 2016 (issued every 10 minutes, with the page automatically refreshed every 10 minutes)

About weather observations | Map of Melbourne area stations | Latest observations for Melbourne area | Other Formats
Station Details ID: 087031 Name: LAVERTON RAAF Lat: -37.86 Lon: 144.76 Height: 20.1 m
Data from the previous 72 hours. | See also: Recent months at Laverton
Date/Time
EDT
Tmp

°C
App
Tmp
°C
Dew
Point
°C
Rel
Hum
%
Delta-T

°C
Wind Press
QNH
hPa
Press
MSL
hPa
Rain
since
9 am
mm
Dir
 
Spd
km/h
Gust
km/h
Spd
kts
Gust
kts
09/12:30pm 21.8 20.3 13.2 58 4.9 SSE 13 22 7 12 1020.7 1020.6 0.0
09/12:00pm 20.9 18.6 13.1 61 4.4 SE 17 28 9 15 1021.1 1021.0 0.0
09/11:30am 20.6 18.7 13.1 62 4.3 SSE 15 22 8 12 1021.4 1021.3 0.0
09/11:00am 20.5 18.6 13.0 62 4.2 SE 15 20 8 11 1021.5 1021.4 0.0
09/10:30am 19.8 18.3 13.0 65 3.9 SE 13 19 7 10 1021.6 1021.5 0.0
09/10:00am 19.4 17.8 12.7 65 3.8 SE 13 20 7 11 1021.7 1021.6 0.0
09/09:30am 19.1 17.8 12.6 66 3.6 S 11 17 6 9 1021.9 1021.8 0.0
09/09:00am 19.1 17.8 12.6 66 3.6 SE 11 17 6 9 1022.0 1021.9 0.0
09/08:30am 18.3 16.5 12.1 67 3.4 SSE 13 17 7 9 1022.0 1021.9 -
09/08:00am 18.2 17.6 12.4 69 3.2 SE 7 11 4 6 1021.9 1021.8 -
09/07:30am 17.8 16.7 12.0 69 3.2 SE 9 13 5 7 1021.8 1021.7 -
09/07:00am 17.6 16.2 12.1 70 3.0 SSE 11 15 6 8 1021.5 1021.4 -
09/06:30am 17.7 15.8 11.7 68 3.3 SSE 13 19 7 10 1021.6 1021.5 -
09/06:00am 17.7 15.8 11.9 69 3.2 SSE 13 19 7 10 1021.4 1021.3 -
09/05:30am 17.7 16.4 12.4 71 2.9 SE 11 17 6 9 1021.4 1021.3 -
09/05:00am 17.7 16.0 12.4 71 2.9 SE 13 17 7 9 1021.3 1021.2 -
09/04:30am 17.8 15.7 12.3 70 3.0 SSE 15 22 8 12 1021.3 1021.2 -
09/04:00am 17.9 15.9 12.6 71 2.9 SSE 15 20 8 11 1021.4 1021.3 -
09/03:30am 18.0 16.1 12.9 72 2.9 SSE 15 20 8 11 1021.3 1021.2 -
09/03:00am 17.9 15.9 12.6 71 2.9 SSE 15 19 8 10 1021.6 1021.5 -
09/02:30am 18.0 15.6 12.7 71 3.0 S 17 22 9 12 1021.7 1021.6 -
09/02:00am 18.3 16.6 12.5 69 3.2 SSE 13 19 7 10 1021.9 1021.8 -
09/01:30am 18.6 17.5 13.2 71 3.1 SSE 11 17 6 9 1022.2 1022.1 -
09/01:00am 18.5 16.6 12.9 70 3.1 SSE 15 20 8 11 1022.6 1022.5 -
09/12:30am 18.9 17.2 13.5 71 3.1 SSE 15 20 8 11 1022.7 1022.6 -
09/12:00am 18.8 17.3 14.3 75 2.6 S 15 20 8 11 1022.9 1022.8 -
 
Date/Time
EDT
Tmp

°C
App
Tmp
°C
Dew
Point
°C
Rel
Hum
%
Delta-T

°C
Wind Press
QNH
hPa
Press
MSL
hPa
Rain
since
9 am
mm
Dir
 
Spd
km/h
Gust
km/h
Spd
kts
Gust
kts
08/11:30pm 18.8 16.4 13.9 73 2.8 S 19 24 10 13 1023.1 1023.0 -
08/11:00pm 18.8 16.3 13.4 71 3.1 SSE 19 24 10 13 1023.2 1023.1 -
08/10:30pm 18.8 16.3 13.6 72 3.0 S 19 26 10 14 1023.2 1023.1 -
08/10:00pm 18.9 16.8 13.7 72 3.0 S 17 28 9 15 1023.2 1023.1 -
08/09:30pm 18.6 15.8 13.2 71 3.1 S 20 26 11 14 1023.1 1023.0 -
08/09:00pm 18.7 16.3 13.8 73 2.8 S 19 24 10 13 1022.7 1022.6 0.0
08/08:30pm 18.8 15.8 13.6 72 3.0 S 22 30 12 16 1022.4 1022.3 0.0
08/08:00pm 19.3 15.9 13.7 70 3.2 S 24 33 13 18 1022.1 1022.0 0.0
08/07:30pm 20.0 16.9 13.5 66 3.7 S 22 32 12 17 1021.9 1021.8 0.0
08/07:00pm 20.1 16.6 13.3 65 3.9 S 24 33 13 18 1021.6 1021.5 0.0
08/06:30pm 20.9 17.5 13.6 63 4.2 S 24 33 13 18 1021.6 1021.5 0.0
08/06:00pm 21.2 17.4 13.6 62 4.4 S 26 35 14 19 1021.6 1021.5 0.0
08/05:30pm 21.8 18.7 13.4 59 4.8 S 22 30 12 16 1021.6 1021.5 0.0
08/05:00pm 21.7 18.6 13.3 59 4.8 SSE 22 32 12 17 1021.7 1021.6 0.0
08/04:30pm 22.2 18.7 13.3 57 5.1 SSE 24 33 13 18 1021.7 1021.6 0.0
08/04:00pm 22.6 19.3 13.9 58 5.1 SSE 24 33 13 18 1022.0 1021.9 0.0
08/03:30pm 22.7 19.4 14.0 58 5.1 S 24 33 13 18 1022.1 1022.0 0.0
08/03:00pm 22.9 19.5 13.7 56 5.3 S 24 33 13 18 1022.1 1022.0 0.0
08/02:30pm 22.7 19.5 13.2 55 5.5 S 22 33 12 18 1022.1 1022.0 0.0
08/02:00pm 22.7 19.7 12.6 53 5.7 S 20 32 11 17 1022.4 1022.3 0.0
08/01:30pm 22.2 19.5 13.0 56 5.3 SSE 19 33 10 18 1022.4 1022.3 0.0
08/01:00pm 22.0 19.4 13.1 57 5.1 SSE 19 28 10 15 1022.5 1022.4 0.0
08/12:30pm 22.2 19.9 13.0 56 5.3 SSE 17 24 9 13 1022.7 1022.6 0.0
08/12:00pm 21.8 19.6 13.2 58 4.9 SSE 17 22 9 12 1022.8 1022.7 0.0
08/11:30am 21.3 19.2 13.5 61 4.5 S 17 24 9 13 1022.9 1022.8 0.0
08/11:00am 20.7 18.5 13.2 62 4.3 S 17 26 9 14 1022.9 1022.8 0.0
08/10:30am 20.5 19.2 13.7 65 3.9 S 13 20 7 11 1022.9 1022.8 0.0
08/10:00am 20.0 18.6 13.5 66 3.7 S 13 20 7 11 1022.6 1022.5 0.0
08/09:30am 19.7 17.6 13.6 68 3.5 S 17 22 9 12 1022.6 1022.5 0.0
08/09:00am 19.5 17.5 13.9 70 3.2 SSW 17 20 9 11 1022.3 1022.2 0.0
08/08:30am 19.1 17.6 14.1 73 2.9 SSW 15 20 8 11 1022.0 1021.9 0.0
08/08:00am 18.8 19.2 15.3 80 2.0 W 7 11 4 6 1021.7 1021.6 0.0
08/07:30am 18.6 18.6 15.1 80 2.0 WSW 9 15 5 8 1021.5 1021.4 0.0
08/07:00am 18.5 18.5 15.2 81 1.9 SW 9 11 5 6 1021.4 1021.3 0.0
08/06:30am 18.4 18.4 15.1 81 1.9 SW 9 13 5 7 1021.1 1021.0 0.0
08/06:00am 18.1 18.0 15.0 82 1.8 SW 9 13 5 7 1020.7 1020.6 0.0
08/05:30am 17.8 17.8 15.1 84 1.6 SW 9 11 5 6 1020.5 1020.4 0.0
08/05:00am 17.6 17.2 15.2 86 1.4 SW 11 13 6 7 1020.4 1020.3 0.0
08/04:30am 18.2 18.4 15.8 86 1.4 WSW 9 13 5 7 1020.3 1020.2 0.0
08/04:00am 17.2 17.4 15.7 91 0.9 W 9 9 5 5 1020.2 1020.1 0.0
08/03:30am 16.9 17.5 15.4 91 0.9 W 6 7 3 4 1020.3 1020.2 0.0
08/03:00am 17.2 17.8 15.2 88 1.2 WSW 6 6 3 3 1020.4 1020.3 0.0
08/02:30am 17.9 17.9 15.3 85 1.5 SW 9 13 5 7 1020.5 1020.4 0.0
08/02:00am 18.2 17.9 15.5 84 1.6 SSW 11 15 6 8 1020.7 1020.6 0.0
08/01:30am 18.2 18.0 15.8 86 1.4 SW 11 15 6 8 1020.7 1020.6 0.0
08/01:00am 18.4 18.3 16.0 86 1.4 SSW 11 17 6 9 1020.5 1020.4 0.0
08/12:43am 18.6 18.6 16.2 86 1.4 SW 11 17 6 9 1020.4 1020.3 0.0
08/12:30am 18.8 18.9 16.4 86 1.4 SW 11 15 6 8 1020.4 1020.3 0.0
08/12:00am 18.9 18.9 16.3 85 1.6 SSW 11 15 6 8 1020.3 1020.2 0.0
 
Date/Time
EDT
Tmp

°C
App
Tmp
°C
Dew
Point
°C
Rel
Hum
%
Delta-T

°C
Wind Press
QNH
hPa
Press
MSL
hPa
Rain
since
9 am
mm
Dir
 
Spd
km/h
Gust
km/h
Spd
kts
Gust
kts
07/11:52pm 18.9 18.9 16.3 85 1.6 SSW 11 15 6 8 1020.1 1020.0 0.0
07/11:30pm 18.8 19.2 16.4 86 1.4 SW 9 13 5 7 1020.1 1020.0 0.0
07/11:00pm 19.0 19.1 16.4 85 1.6 SW 11 13 6 7 1020.0 1019.9 0.0
07/10:30pm 19.3 19.0 16.5 84 1.7 SW 13 15 7 8 1019.9 1019.8 0.0
07/10:00pm 19.5 18.8 16.5 83 1.8 SSW 15 19 8 10 1019.6 1019.5 0.0
07/09:30pm 19.9 18.9 16.5 81 2.0 SSW 17 24 9 13 1019.3 1019.2 0.0
07/09:00pm 20.6 19.4 16.2 76 2.6 SSW 17 26 9 14 1018.9 1018.8 0.0
07/08:30pm 21.0 19.3 16.2 74 2.9 SSW 20 30 11 16 1018.5 1018.4 0.0
07/08:00pm 21.9 20.4 16.2 70 3.4 S 19 26 10 14 1017.9 1017.8 0.0
07/07:30pm 22.7 20.5 14.8 61 4.7 S 20 30 11 16 1017.6 1017.5 0.0
07/07:00pm 23.9 19.6 12.2 48 6.7 S 26 39 14 21 1017.0 1016.9 0.0
07/06:30pm 24.8 19.4 11.0 42 7.7 S 30 43 16 23 1016.5 1016.4 0.0
07/06:00pm 24.9 20.0 13.8 50 6.5 S 32 43 17 23 1016.3 1016.2 0.0
07/05:30pm 25.0 20.4 13.5 48 6.7 S 30 43 16 23 1016.1 1016.0 0.0
07/05:00pm 25.6 22.4 16.2 56 5.8 S 28 39 15 21 1015.9 1015.8 0.0
07/04:30pm 26.4 22.8 13.2 44 7.7 S 24 35 13 19 1015.9 1015.8 0.0
07/04:00pm 26.0 23.7 15.7 53 6.3 SSE 22 30 12 16 1015.7 1015.6 0.0
07/03:30pm 26.3 23.5 16.3 54 6.2 SSE 26 32 14 17 1015.8 1015.7 0.0
07/03:00pm 27.0 25.3 16.3 52 6.6 SSE 20 28 11 15 1015.9 1015.8 0.0
07/02:30pm 26.8 25.1 17.3 56 6.0 SSE 22 30 12 16 1016.1 1016.0 0.0
07/02:00pm 27.2 26.1 17.7 56 6.0 S 20 26 11 14 1016.3 1016.2 0.0
07/01:30pm 26.9 26.0 18.2 59 5.5 S 20 26 11 14 1016.4 1016.3 0.0
07/01:00pm 27.3 27.6 17.8 56 6.0 SSE 13 19 7 10 1016.4 1016.3 0.0
07/12:30pm 27.1 27.5 18.1 58 5.7 S 13 19 7 10 1016.7 1016.6 0.0
07/12:00pm 25.7 25.7 18.1 63 4.8 S 15 22 8 12 1017.0 1016.9 0.0
07/11:30am 25.2 25.7 18.4 66 4.3 S 13 20 7 11 1017.1 1017.0 0.0
07/11:00am 25.1 25.3 18.5 67 4.2 SSW 15 20 8 11 1017.2 1017.1 0.0
07/10:30am 24.1 23.7 18.1 69 3.8 SSW 17 22 9 12 1017.4 1017.3 0.0
07/10:00am 23.9 23.8 16.9 65 4.3 SSW 13 20 7 11 1017.3 1017.2 0.0
07/09:30am 23.4 23.2 15.7 62 4.6 SW 11 15 6 8 1017.0 1016.9 0.0
07/09:00am 23.1 23.7 15.7 63 4.5 SSE 7 11 4 6 1016.9 1016.8 0.0
07/08:30am 21.5 22.0 15.1 67 3.8 WSW 6 7 3 4 1016.4 1016.3 0.0
07/08:00am 19.2 20.9 15.1 77 2.4 CALM 0 0 0 0 1016.0 1015.9 0.0
07/07:30am 18.3 19.8 14.6 79 2.1 CALM 0 0 0 0 1015.7 1015.6 0.0
07/07:00am 17.4 17.5 13.9 80 2.0 WSW 6 7 3 4 1015.5 1015.4 0.0
07/06:30am 17.1 17.0 14.0 82 1.8 N 7 7 4 4 1015.2 1015.1 0.0
07/06:00am 17.1 17.1 14.2 83 1.7 N 7 9 4 5 1014.7 1014.6 0.0
07/05:30am 17.1 17.3 14.6 85 1.4 NW 7 9 4 5 1014.8 1014.7 0.0
07/05:00am 17.4 17.3 14.9 85 1.4 NNW 9 11 5 6 1014.6 1014.5 0.0
07/04:30am 17.5 17.5 15.1 86 1.4 NW 9 9 5 5 1014.6 1014.5 0.0
07/04:00am 18.1 18.5 15.4 84 1.6 NW 7 11 4 6 1014.6 1014.5 0.0
07/03:30am 18.6 18.8 15.8 84 1.7 NW 9 9 5 5 1014.6 1014.5 0.0
07/03:00am 18.7 19.0 15.9 84 1.7 WNW 9 11 5 6 1014.6 1014.5 0.0
07/02:30am 19.1 19.4 16.1 83 1.8 WNW 9 13 5 7 1014.5 1014.4 0.0
07/02:00am 19.3 19.2 16.0 81 2.0 NW 11 13 6 7 1014.7 1014.6 0.0
07/01:30am 19.9 20.4 16.5 81 2.0 NW 9 13 5 7 1014.8 1014.7 0.0
07/01:00am 20.1 20.6 16.5 80 2.2 WNW 9 13 5 7 1015.0 1014.9 0.0
07/12:30am 20.3 20.4 16.5 79 2.3 NW 11 13 6 7 1015.1 1015.0 0.0
07/12:00am 22.3 24.8 17.2 73 3.1 CALM 0 4 0 2 1014.9 1014.8 0.0
 
Date/Time
EDT
Tmp

°C
App
Tmp
°C
Dew
Point
°C
Rel
Hum
%
Delta-T

°C
Wind Press
QNH
hPa
Press
MSL
hPa
Rain
since
9 am
mm
Dir
 
Spd
km/h
Gust
km/h
Spd
kts
Gust
kts
06/11:30pm 23.3 24.7 17.3 69 3.7 SSE 6 7 3 4 1014.9 1014.8 0.0
06/11:00pm 23.7 24.8 17.9 70 3.6 SE 9 11 5 6 1014.8 1014.7 0.0
06/10:30pm 23.9 25.2 18.5 72 3.4 SSW 9 11 5 6 1014.6 1014.5 0.0
06/10:00pm 25.2 26.0 18.2 65 4.4 S 11 17 6 9 1014.5 1014.4 0.0
06/09:30pm 26.2 25.9 16.4 54 6.0 SE 13 19 7 10 1014.0 1013.9 0.0
06/09:00pm 26.4 26.0 16.3 53 6.2 ESE 13 17 7 9 1013.5 1013.4 0.0
06/08:30pm 27.0 26.3 15.4 49 7.1 ESE 13 17 7 9 1013.2 1013.1 0.0
06/08:00pm 28.4 26.3 13.5 40 8.9 SE 17 26 9 14 1013.0 1012.9 0.0
06/07:30pm 29.5 27.0 12.4 35 10.0 ESE 17 24 9 13 1012.8 1012.7 0.0
06/07:00pm 30.3 27.2 10.3 29 11.4 ESE 17 22 9 12 1012.7 1012.6 0.0
06/06:30pm 30.3 27.1 11.3 31 11.0 ESE 19 28 10 15 1012.7 1012.6 0.0
06/06:00pm 30.7 27.8 11.1 30 11.3 ESE 17 24 9 13 1012.8 1012.7 0.0
06/05:30pm 30.3 25.9 10.3 29 11.4 ESE 24 32 13 17 1012.9 1012.8 0.0
06/05:00pm 30.5 25.8 9.4 27 11.8 ESE 24 33 13 18 1013.1 1013.0 0.0
06/04:30pm 30.5 25.8 9.4 27 11.8 ESE 24 33 13 18 1013.5 1013.4 0.0
06/04:00pm 31.0 27.8 11.4 30 11.4 ESE 19 24 10 13 1013.9 1013.8 0.0
06/03:30pm 30.9 27.7 11.8 31 11.2 ESE 20 28 11 15 1014.2 1014.1 0.0
06/03:00pm 30.6 26.8 11.1 30 11.3 ESE 22 30 12 16 1014.4 1014.3 0.0
06/02:30pm 30.6 27.6 12.5 33 10.7 E 20 26 11 14 1014.6 1014.5 0.0
06/02:00pm 29.8 27.3 13.5 36 9.7 E 19 24 10 13 1015.0 1014.9 0.0
06/01:30pm 29.8 27.7 13.5 36 9.7 E 17 20 9 11 1015.4 1015.3 0.0
06/01:00pm 29.1 27.8 13.7 38 9.2 E 13 19 7 10 1015.7 1015.6 0.0

Latest Capital City Observations: Canberra | Sydney | Melbourne | Brisbane | Adelaide | Perth | Hobart | Darwin

Other Formats:

Comma delimited format used in spreadsheet applications
http://www.bom.gov.au/fwo/IDV60901/IDV60901.94865.axf

JavaScript Object Notation format (JSON) in row-major order
http://www.bom.gov.au/fwo/IDV60901/IDV60901.94865.json